createdAt,value
2023-01-01T00:01:50.105Z,13.34
2023-01-01T00:03:53.148Z,13.32
2023-01-01T00:05:54.878Z,13.19
2023-01-01T00:08:04.310Z,13.01
2023-01-01T00:10:25.779Z,13.01
2023-01-01T00:12:27.435Z,13.05
2023-01-01T00:14:29.323Z,13.07
2023-01-01T00:16:30.946Z,13.11
2023-01-01T00:18:33.276Z,13.01
2023-01-01T00:20:35.566Z,12.93
2023-01-01T00:22:54.537Z,12.80
2023-01-01T00:24:57.159Z,12.75
2023-01-01T00:26:58.756Z,12.70
2023-01-01T00:29:01.229Z,12.62
2023-01-01T00:31:07.919Z,12.21
2023-01-01T00:33:09.493Z,12.22
2023-01-01T00:35:11.060Z,12.11
2023-01-01T00:37:12.708Z,12.07
2023-01-01T00:39:14.358Z,12.10
2023-01-01T00:41:17.494Z,12.06
2023-01-01T00:43:19.131Z,12.08
2023-01-01T00:45:22.590Z,12.27
2023-01-01T00:47:24.569Z,12.19
2023-01-01T00:49:26.263Z,12.09
2023-01-01T00:51:31.697Z,12.00
2023-01-01T00:53:38.292Z,11.89
2023-01-01T00:55:41.194Z,11.99
2023-01-01T00:57:42.862Z,11.95
2023-01-01T00:59:44.621Z,11.79
2023-01-01T01:01:46.363Z,11.89
2023-01-01T01:03:48.481Z,11.80
2023-01-01T01:05:50.349Z,11.74
2023-01-01T01:07:52.214Z,11.61
2023-01-01T01:09:54.645Z,11.69
2023-01-01T01:12:17.768Z,11.63
2023-01-01T01:14:19.511Z,11.58
2023-01-01T01:16:29.043Z,11.71
2023-01-01T01:18:30.718Z,12.00
2023-01-01T01:20:35.132Z,12.05
2023-01-01T01:22:36.739Z,12.23
2023-01-01T01:24:38.909Z,12.34
2023-01-01T01:26:41.846Z,12.43
2023-01-01T01:28:49.325Z,12.42
2023-01-01T01:30:52.126Z,12.39
2023-01-01T01:32:53.996Z,12.47
2023-01-01T01:34:55.919Z,12.33
2023-01-01T01:36:57.627Z,12.39
2023-01-01T01:38:59.200Z,12.41
2023-01-01T01:41:00.813Z,12.38
2023-01-01T01:43:02.463Z,12.33
2023-01-01T01:45:06.901Z,12.20
2023-01-01T01:47:17.461Z,12.09
2023-01-01T01:49:30.282Z,12.14
2023-01-01T01:51:37.932Z,12.19
2023-01-01T01:53:45.541Z,12.22
2023-01-01T01:55:51.513Z,12.29
2023-01-01T01:57:53.420Z,12.32
2023-01-01T01:59:57.194Z,12.24
2023-01-01T02:02:00.384Z,12.20
2023-01-01T02:04:03.932Z,12.26
2023-01-01T02:06:06.347Z,12.28
2023-01-01T02:08:09.863Z,12.26
2023-01-01T02:10:11.917Z,12.31
2023-01-01T02:12:13.890Z,12.31
2023-01-01T02:14:16.024Z,12.38
2023-01-01T02:16:38.466Z,12.36
2023-01-01T02:18:54.960Z,12.32
2023-01-01T02:20:56.870Z,12.32
2023-01-01T02:23:17.453Z,12.36
2023-01-01T02:25:21.911Z,12.50
2023-01-01T02:27:50.807Z,12.49
2023-01-01T02:30:07.334Z,12.37
2023-01-01T02:32:22.450Z,12.47
2023-01-01T02:34:29.442Z,12.50
2023-01-01T02:36:33.603Z,12.59
2023-01-01T02:38:39.465Z,12.58
2023-01-01T02:40:55.887Z,12.77
2023-01-01T02:42:58.939Z,12.75
2023-01-01T02:45:00.814Z,12.73
2023-01-01T02:47:11.163Z,12.73
2023-01-01T02:49:12.831Z,12.73
2023-01-01T02:51:14.410Z,12.85
2023-01-01T02:53:32.200Z,12.77
2023-01-01T02:55:48.011Z,12.84
2023-01-01T02:58:23.938Z,12.75
2023-01-01T03:00:29.623Z,12.71
2023-01-01T03:02:50.469Z,12.93
2023-01-01T03:05:13.484Z,12.96
2023-01-01T03:07:54.324Z,12.78
2023-01-01T03:10:04.692Z,12.95
2023-01-01T03:12:14.004Z,12.92
2023-01-01T03:14:27.663Z,12.92
2023-01-01T03:16:39.079Z,12.98
2023-01-01T03:19:13.284Z,12.98
2023-01-01T03:23:27.036Z,13.10
2023-01-01T03:25:34.024Z,13.02
2023-01-01T03:27:41.989Z,13.06
2023-01-01T03:29:45.260Z,13.16
2023-01-01T03:31:50.655Z,13.17
2023-01-01T03:34:06.115Z,13.27
2023-01-01T03:36:11.194Z,13.09
2023-01-01T03:38:28.068Z,13.15
2023-01-01T03:40:34.584Z,13.17
2023-01-01T03:42:45.657Z,13.13
2023-01-01T03:45:01.645Z,13.14
2023-01-01T03:47:07.015Z,13.07
2023-01-01T03:49:11.521Z,13.10
2023-01-01T03:51:25.764Z,13.06
2023-01-01T03:53:42.805Z,13.13
2023-01-01T03:56:00.392Z,12.97
2023-01-01T03:58:27.837Z,13.03
2023-01-01T04:00:40.425Z,13.08
2023-01-01T04:03:04.492Z,13.10
2023-01-01T04:05:10.174Z,12.91
2023-01-01T04:07:15.813Z,12.93
2023-01-01T04:09:25.251Z,13.07
2023-01-01T04:11:49.459Z,13.02
2023-01-01T04:14:53.145Z,12.87
2023-01-01T04:17:00.044Z,12.98
2023-01-01T04:19:01.683Z,12.99
2023-01-01T04:21:03.343Z,12.99
2023-01-01T04:23:05.587Z,12.97
2023-01-01T04:25:08.698Z,13.01
2023-01-01T04:27:10.321Z,13.05
2023-01-01T04:29:12.001Z,13.01
2023-01-01T04:31:13.567Z,12.94
2023-01-01T04:33:15.481Z,12.85
2023-01-01T04:35:17.618Z,12.98
2023-01-01T04:37:22.090Z,12.87
2023-01-01T04:39:23.776Z,12.89
2023-01-01T04:41:26.080Z,12.84
2023-01-01T04:43:28.765Z,12.74
2023-01-01T04:45:31.448Z,12.74
2023-01-01T04:47:33.284Z,12.64
2023-01-01T04:49:34.844Z,12.54
2023-01-01T04:51:36.975Z,12.66
2023-01-01T04:53:39.136Z,12.67
2023-01-01T04:55:41.057Z,12.67
2023-01-01T04:57:42.807Z,12.49
2023-01-01T04:59:44.640Z,12.42
2023-01-01T05:01:46.353Z,12.40
2023-01-01T05:03:48.654Z,12.53
2023-01-01T05:06:05.491Z,12.48
2023-01-01T05:08:07.185Z,12.53
2023-01-01T05:10:09.991Z,12.48
2023-01-01T05:12:11.787Z,12.47
2023-01-01T05:14:13.808Z,12.42
2023-01-01T05:16:18.402Z,12.45
2023-01-01T05:18:20.522Z,12.43
2023-01-01T05:20:22.062Z,12.40
2023-01-01T05:22:24.145Z,12.37
2023-01-01T05:24:25.832Z,12.40
2023-01-01T05:26:31.158Z,12.45
2023-01-01T05:28:32.666Z,12.50
2023-01-01T05:30:34.363Z,12.47
2023-01-01T05:32:37.343Z,12.41
2023-01-01T05:36:39.624Z,12.35
2023-01-01T05:38:41.991Z,12.41
2023-01-01T05:40:43.546Z,12.47
2023-01-01T05:42:47.283Z,12.38
2023-01-01T05:44:48.901Z,12.38
2023-01-01T05:46:50.665Z,12.30
2023-01-01T05:48:54.048Z,12.16
2023-01-01T05:51:11.961Z,12.28
2023-01-01T05:53:13.475Z,12.18
2023-01-01T05:55:15.152Z,12.24
2023-01-01T05:57:16.687Z,12.32
2023-01-01T05:59:18.645Z,12.20
2023-01-01T06:01:26.582Z,12.33
2023-01-01T06:03:28.245Z,12.32
2023-01-01T06:05:30.157Z,12.24
2023-01-01T06:07:31.761Z,12.24
2023-01-01T06:09:33.482Z,12.41
2023-01-01T06:11:35.462Z,12.35
2023-01-01T06:13:37.128Z,12.24
2023-01-01T06:15:38.687Z,12.23
2023-01-01T06:17:40.268Z,12.22
2023-01-01T06:19:42.122Z,12.28
2023-01-01T06:21:43.668Z,12.18
2023-01-01T06:23:45.697Z,12.23
2023-01-01T06:25:47.361Z,12.24
2023-01-01T06:27:49.107Z,12.34
2023-01-01T06:29:50.831Z,12.46
2023-01-01T06:31:52.743Z,12.36
2023-01-01T06:33:54.593Z,12.42
2023-01-01T06:35:56.377Z,12.34
2023-01-01T06:38:00.819Z,12.12
2023-01-01T06:40:02.403Z,12.20
2023-01-01T06:42:04.257Z,12.06
2023-01-01T06:44:06.110Z,11.99
2023-01-01T06:46:16.012Z,12.00
2023-01-01T06:48:17.742Z,12.07
2023-01-01T06:50:19.396Z,12.08
2023-01-01T06:52:20.991Z,12.15
2023-01-01T06:54:22.791Z,12.09
2023-01-01T06:56:24.843Z,12.02
2023-01-01T06:58:26.716Z,12.07
2023-01-01T07:00:28.242Z,12.01
2023-01-01T07:02:29.975Z,11.93
2023-01-01T07:04:31.749Z,11.99
2023-01-01T07:06:35.058Z,11.84
2023-01-01T07:08:37.538Z,11.87
2023-01-01T07:10:40.308Z,11.89
2023-01-01T07:12:42.278Z,11.83
2023-01-01T07:14:44.149Z,11.92
2023-01-01T07:16:45.709Z,11.80
2023-01-01T07:18:48.996Z,11.91
2023-01-01T07:20:53.413Z,11.82
2023-01-01T07:22:55.174Z,11.92
2023-01-01T07:24:57.061Z,11.83
2023-01-01T07:26:58.616Z,11.93
2023-01-01T07:29:08.724Z,12.04
2023-01-01T07:31:10.882Z,11.92
2023-01-01T07:33:14.535Z,11.89
2023-01-01T07:35:16.176Z,12.11
2023-01-01T07:37:17.759Z,12.21
2023-01-01T07:39:19.462Z,12.14
2023-01-01T07:41:21.072Z,12.14
2023-01-01T07:43:22.950Z,12.24
2023-01-01T07:45:25.402Z,12.12
2023-01-01T07:47:27.446Z,12.30
2023-01-01T07:49:29.198Z,12.21
2023-01-01T07:51:31.117Z,12.21
2023-01-01T07:53:32.688Z,12.18
2023-01-01T07:55:34.733Z,12.23
2023-01-01T07:57:36.311Z,12.19
2023-01-01T07:59:37.952Z,12.28
2023-01-01T08:01:39.583Z,12.17
2023-01-01T08:03:41.992Z,12.14
2023-01-01T08:05:43.691Z,12.12
2023-01-01T08:07:47.235Z,12.27
2023-01-01T08:09:48.768Z,12.23
2023-01-01T08:11:52.738Z,12.25
2023-01-01T08:13:54.755Z,12.24
2023-01-01T08:15:58.372Z,12.32
2023-01-01T08:18:02.278Z,12.36
2023-01-01T08:20:05.162Z,12.51
2023-01-01T08:22:06.783Z,12.58
2023-01-01T08:24:08.479Z,12.46
2023-01-01T08:26:16.442Z,12.36
2023-01-01T08:28:18.053Z,12.42
2023-01-01T08:30:19.655Z,12.40
2023-01-01T08:32:21.530Z,12.50
2023-01-01T08:34:23.131Z,12.43
2023-01-01T08:36:24.960Z,12.55
2023-01-01T08:38:26.980Z,12.71
2023-01-01T08:40:28.792Z,12.77
2023-01-01T08:42:30.439Z,12.97
2023-01-01T08:44:32.068Z,12.95
2023-01-01T08:46:33.741Z,13.01
2023-01-01T08:48:35.368Z,13.13
2023-01-01T08:50:37.579Z,13.17
2023-01-01T08:52:39.252Z,13.34
2023-01-01T08:54:40.917Z,13.57
2023-01-01T08:56:42.768Z,13.57
2023-01-01T08:58:45.271Z,13.53
2023-01-01T09:00:46.855Z,13.49
2023-01-01T09:02:48.819Z,13.47
2023-01-01T09:04:50.447Z,13.48
2023-01-01T09:06:52.183Z,13.45
2023-01-01T09:08:53.767Z,13.53
2023-01-01T09:11:01.406Z,13.47
2023-01-01T09:13:03.011Z,13.24
2023-01-01T09:15:05.316Z,13.25
2023-01-01T09:17:06.842Z,13.35
2023-01-01T09:19:08.466Z,13.18
2023-01-01T09:21:10.573Z,13.28
2023-01-01T09:23:12.706Z,13.47
2023-01-01T09:25:14.237Z,13.47
2023-01-01T09:27:15.773Z,13.50
2023-01-01T09:29:21.929Z,13.56
2023-01-01T09:31:24.086Z,13.64
2023-01-01T09:33:25.810Z,13.43
2023-01-01T09:35:27.550Z,13.54
2023-01-01T09:37:31.467Z,13.62
2023-01-01T09:39:33.158Z,13.70
2023-01-01T09:41:53.231Z,13.83
2023-01-01T09:44:07.495Z,13.81
2023-01-01T09:46:11.364Z,13.96
2023-01-01T09:48:16.179Z,13.96
2023-01-01T09:50:23.028Z,13.99
2023-01-01T09:52:34.728Z,13.85
2023-01-01T09:55:05.700Z,13.78
2023-01-01T09:57:18.039Z,13.89
2023-01-01T09:59:21.846Z,13.86
2023-01-01T10:01:49.170Z,13.83
2023-01-01T10:03:54.949Z,13.62
2023-01-01T10:06:03.753Z,13.65
2023-01-01T10:08:11.318Z,13.62
2023-01-01T10:10:36.056Z,13.67
2023-01-01T10:12:50.385Z,13.65
2023-01-01T10:15:00.890Z,13.66
2023-01-01T10:17:10.678Z,13.79
2023-01-01T10:19:37.689Z,13.74
2023-01-01T10:21:47.306Z,13.85
2023-01-01T10:23:56.270Z,13.85
2023-01-01T10:26:01.943Z,14.00
2023-01-01T10:28:11.301Z,14.24
2023-01-01T10:30:15.995Z,14.28
2023-01-01T10:32:27.820Z,14.34
2023-01-01T10:34:32.087Z,14.37
2023-01-01T10:36:33.638Z,14.39
2023-01-01T10:38:37.187Z,14.32
2023-01-01T10:40:40.036Z,14.18
2023-01-01T10:42:41.674Z,14.39
2023-01-01T10:44:43.860Z,14.35
2023-01-01T10:46:50.553Z,14.80
2023-01-01T10:49:05.612Z,14.94
2023-01-01T10:51:14.769Z,15.09
2023-01-01T10:53:34.536Z,15.22
2023-01-01T10:55:36.139Z,15.37
2023-01-01T10:57:40.410Z,15.17
2023-01-01T10:59:49.807Z,15.12
2023-01-01T11:02:15.316Z,15.11
2023-01-01T11:04:21.025Z,15.38
2023-01-01T11:06:33.857Z,15.04
2023-01-01T11:08:39.217Z,15.10
2023-01-01T11:10:41.456Z,14.98
2023-01-01T11:15:06.262Z,14.35
2023-01-01T11:17:09.680Z,14.29
2023-01-01T11:19:27.567Z,14.38
2023-01-01T11:21:29.759Z,14.37
2023-01-01T11:23:34.149Z,14.33
2023-01-01T11:25:35.784Z,14.24
2023-01-01T11:27:37.365Z,14.20
2023-01-01T11:29:39.353Z,14.30
2023-01-01T11:31:42.400Z,14.45
2023-01-01T11:33:50.043Z,14.55
2023-01-01T11:35:55.323Z,14.50
2023-01-01T11:37:59.198Z,14.43
2023-01-01T11:40:04.038Z,14.39
2023-01-01T11:42:06.580Z,14.48
2023-01-01T11:44:22.279Z,14.34
2023-01-01T11:46:24.740Z,14.42
2023-01-01T11:48:44.881Z,14.48
2023-01-01T11:50:58.587Z,14.45
2023-01-01T11:53:24.649Z,14.54
2023-01-01T11:55:39.153Z,14.35
2023-01-01T11:57:46.471Z,14.32
2023-01-01T11:59:54.823Z,14.40
2023-01-01T12:02:04.250Z,14.28
2023-01-01T12:04:16.120Z,14.28
2023-01-01T12:06:26.703Z,14.19
2023-01-01T12:08:54.533Z,14.09
2023-01-01T12:11:04.652Z,14.14
2023-01-01T12:13:15.415Z,14.32
2023-01-01T12:15:33.667Z,14.06
2023-01-01T12:17:42.636Z,14.20
2023-01-01T12:20:01.707Z,14.28
2023-01-01T12:22:03.471Z,14.23
2023-01-01T12:24:12.134Z,14.15
2023-01-01T12:26:41.380Z,14.23
2023-01-01T12:28:48.830Z,14.24
2023-01-01T12:31:05.838Z,14.28
2023-01-01T12:33:26.274Z,13.91
2023-01-01T12:35:55.510Z,13.78
2023-01-01T12:37:59.908Z,13.86
2023-01-01T12:40:07.521Z,13.99
2023-01-01T12:42:24.700Z,14.13
2023-01-01T12:44:46.490Z,14.12
2023-01-01T12:47:00.545Z,14.11
2023-01-01T12:49:28.782Z,14.15
2023-01-01T12:51:30.326Z,14.14
2023-01-01T12:53:31.892Z,14.11
2023-01-01T12:55:50.828Z,13.98
2023-01-01T12:58:04.040Z,14.01
2023-01-01T13:00:15.054Z,14.06
2023-01-01T13:02:23.359Z,13.98
2023-01-01T13:04:25.224Z,13.95
2023-01-01T13:06:39.696Z,13.95
2023-01-01T13:08:42.418Z,13.97
2023-01-01T13:10:46.099Z,14.05
2023-01-01T13:12:50.135Z,13.89
2023-01-01T13:14:52.052Z,13.68
2023-01-01T13:16:57.933Z,13.76
2023-01-01T13:19:02.781Z,13.88
2023-01-01T13:21:21.042Z,13.82
2023-01-01T13:23:28.648Z,13.87
2023-01-01T13:25:30.480Z,13.95
2023-01-01T13:28:03.467Z,13.97
2023-01-01T13:30:37.231Z,14.06
2023-01-01T13:33:25.068Z,14.17
2023-01-01T13:35:27.326Z,14.10
2023-01-01T13:37:31.495Z,14.15
2023-01-01T13:39:52.961Z,13.94
2023-01-01T13:41:54.749Z,14.03
2023-01-01T13:43:58.903Z,14.08
2023-01-01T13:46:12.753Z,14.02
2023-01-01T13:48:23.473Z,14.00
2023-01-01T13:50:39.094Z,13.73
2023-01-01T13:52:52.742Z,13.67
2023-01-01T13:55:34.244Z,13.65
2023-01-01T13:57:53.972Z,13.75
2023-01-01T14:00:14.258Z,13.75
2023-01-01T14:02:40.531Z,13.83
2023-01-01T14:04:47.898Z,13.78
2023-01-01T14:06:53.586Z,13.78
2023-01-01T14:09:21.801Z,13.76
2023-01-01T14:11:24.857Z,13.66
2023-01-01T14:13:30.085Z,13.76
2023-01-01T14:15:37.251Z,13.83
2023-01-01T14:17:42.175Z,13.74
2023-01-01T14:19:44.392Z,13.76
2023-01-01T14:21:47.718Z,13.59
2023-01-01T14:24:00.379Z,13.60
2023-01-01T14:26:06.729Z,13.48
2023-01-01T14:28:19.006Z,13.50
2023-01-01T14:30:20.852Z,13.54
2023-01-01T14:32:25.081Z,13.61
2023-01-01T14:34:30.253Z,13.53
2023-01-01T14:36:32.220Z,13.56
2023-01-01T14:38:35.749Z,13.63
2023-01-01T14:40:38.611Z,13.30
2023-01-01T14:42:40.497Z,13.35
2023-01-01T14:44:44.356Z,13.38
2023-01-01T14:46:51.479Z,13.45
2023-01-01T14:48:57.800Z,13.54
2023-01-01T14:51:00.127Z,13.46
2023-01-01T14:53:04.033Z,13.44
2023-01-01T14:55:07.366Z,13.39
2023-01-01T14:57:19.596Z,13.28
2023-01-01T14:59:27.748Z,13.16
2023-01-01T15:01:29.514Z,13.10
2023-01-01T15:03:31.149Z,13.17
2023-01-01T15:05:35.977Z,13.13
2023-01-01T15:07:38.115Z,13.27
2023-01-01T15:09:39.862Z,13.23
2023-01-01T15:11:41.581Z,13.28
2023-01-01T15:14:02.471Z,13.27
2023-01-01T15:16:20.266Z,13.19
2023-01-01T15:18:41.131Z,13.21
2023-01-01T15:20:42.702Z,13.14
2023-01-01T15:22:45.168Z,13.10
2023-01-01T15:24:46.820Z,13.09
2023-01-01T15:26:55.681Z,12.97
2023-01-01T15:28:59.255Z,12.78
2023-01-01T15:31:00.920Z,12.83
2023-01-01T15:33:08.467Z,12.90
2023-01-01T15:35:31.113Z,12.89
2023-01-01T15:37:37.909Z,12.83
2023-01-01T15:39:49.865Z,12.77
2023-01-01T15:41:52.569Z,12.73
2023-01-01T15:44:08.100Z,12.71
2023-01-01T15:46:23.334Z,12.67
2023-01-01T15:48:40.900Z,12.57
2023-01-01T15:50:50.185Z,12.59
2023-01-01T15:52:58.035Z,12.57
2023-01-01T15:54:59.831Z,12.50
2023-01-01T15:57:01.571Z,12.44
2023-01-01T15:59:09.596Z,12.37
2023-01-01T16:01:13.553Z,12.31
2023-01-01T16:03:22.707Z,12.21
2023-01-01T16:05:26.673Z,12.16
2023-01-01T16:07:28.659Z,12.12
2023-01-01T16:09:30.320Z,12.10
2023-01-01T16:11:32.530Z,12.06
2023-01-01T16:13:34.105Z,12.03
2023-01-01T16:15:36.533Z,12.05
2023-01-01T16:17:39.389Z,11.98
2023-01-01T16:19:41.575Z,11.97
2023-01-01T16:21:43.572Z,12.04
2023-01-01T16:23:45.174Z,11.93
2023-01-01T16:25:47.188Z,11.89
2023-01-01T16:27:48.742Z,11.89
2023-01-01T16:29:54.789Z,11.91
2023-01-01T16:31:56.665Z,11.90
2023-01-01T16:34:00.682Z,11.84
2023-01-01T16:36:02.288Z,11.75
2023-01-01T16:38:03.899Z,11.71
2023-01-01T16:40:06.333Z,11.71
2023-01-01T16:42:11.631Z,11.69
2023-01-01T16:44:15.310Z,11.70
2023-01-01T16:46:17.214Z,11.68
2023-01-01T16:48:18.785Z,11.71
2023-01-01T16:50:20.767Z,11.57
2023-01-01T16:52:22.779Z,11.63
2023-01-01T16:54:24.480Z,11.65
2023-01-01T16:56:29.619Z,11.64
2023-01-01T17:00:59.913Z,11.59
2023-01-01T17:03:01.518Z,11.56
2023-01-01T17:05:03.524Z,11.56
2023-01-01T17:07:05.634Z,11.58
2023-01-01T17:09:08.039Z,11.58
2023-01-01T17:11:16.818Z,11.51
2023-01-01T17:13:18.708Z,11.50
2023-01-01T17:15:21.312Z,11.44
2023-01-01T17:17:22.928Z,11.43
2023-01-01T17:19:25.344Z,11.45
2023-01-01T17:21:26.994Z,11.44
2023-01-01T17:23:28.748Z,11.42
2023-01-01T17:25:30.329Z,11.48
2023-01-01T17:27:31.865Z,11.45
2023-01-01T17:29:33.464Z,11.48
2023-01-01T17:31:35.801Z,11.46
2023-01-01T17:33:38.395Z,11.37
2023-01-01T17:35:40.289Z,11.30
2023-01-01T17:37:41.833Z,11.38
2023-01-01T17:39:43.458Z,11.40
2023-01-01T17:41:45.941Z,11.41
2023-01-01T17:43:50.370Z,11.33
2023-01-01T17:45:52.117Z,11.31
2023-01-01T17:47:53.784Z,11.34
2023-01-01T17:49:55.435Z,11.22
2023-01-01T17:51:57.022Z,11.16
2023-01-01T17:53:58.791Z,11.14
2023-01-01T17:56:00.429Z,11.11
2023-01-01T17:58:02.128Z,11.08
2023-01-01T18:00:04.284Z,11.14
2023-01-01T18:02:15.061Z,11.18
2023-01-01T18:04:17.219Z,11.12
2023-01-01T18:06:19.110Z,10.96
2023-01-01T18:08:20.656Z,10.90
2023-01-01T18:10:22.272Z,10.82
2023-01-01T18:12:23.856Z,10.81
2023-01-01T18:14:25.712Z,10.81
2023-01-01T18:16:46.572Z,10.85
2023-01-01T18:18:48.369Z,10.86
2023-01-01T18:20:49.965Z,10.80
2023-01-01T18:22:53.316Z,10.78
2023-01-01T18:24:54.922Z,10.76
2023-01-01T18:26:56.559Z,10.75
2023-01-01T18:29:00.320Z,10.81
2023-01-01T18:31:18.895Z,11.11
2023-01-01T18:33:20.527Z,11.02
2023-01-01T18:35:22.355Z,11.04
2023-01-01T18:37:23.984Z,11.07
2023-01-01T18:39:30.062Z,11.10
2023-01-01T18:41:50.283Z,11.14
2023-01-01T18:43:51.893Z,11.15
2023-01-01T18:45:54.973Z,11.16
2023-01-01T18:47:56.637Z,11.10
2023-01-01T18:50:23.794Z,11.06
2023-01-01T18:52:27.705Z,11.01
2023-01-01T18:54:29.603Z,10.98
2023-01-01T18:56:31.719Z,10.94
2023-01-01T18:58:33.371Z,10.92
2023-01-01T19:00:37.065Z,10.82
2023-01-01T19:02:44.428Z,10.78
2023-01-01T19:04:46.116Z,10.87
2023-01-01T19:06:47.788Z,10.90
2023-01-01T19:08:50.823Z,10.87
2023-01-01T19:10:57.457Z,10.86
2023-01-01T19:12:59.878Z,10.84
2023-01-01T19:15:14.163Z,10.93
2023-01-01T19:17:23.103Z,10.86
2023-01-01T19:19:26.125Z,10.82
2023-01-01T19:21:27.815Z,10.81
2023-01-01T19:23:30.183Z,10.80
2023-01-01T19:25:39.098Z,10.78
2023-01-01T19:27:42.371Z,10.69
2023-01-01T19:29:46.038Z,10.61
2023-01-01T19:31:53.060Z,10.61
2023-01-01T19:33:54.805Z,10.65
2023-01-01T19:35:57.094Z,10.61
2023-01-01T19:37:58.635Z,10.53
2023-01-01T19:40:00.285Z,10.68
2023-01-01T19:42:06.818Z,10.59
2023-01-01T19:44:10.401Z,10.59
2023-01-01T19:46:13.817Z,10.46
2023-01-01T19:48:15.651Z,10.31
2023-01-01T19:50:17.657Z,10.24
2023-01-01T19:52:19.384Z,10.24
2023-01-01T19:54:20.954Z,10.36
2023-01-01T19:56:23.230Z,10.41
2023-01-01T19:58:24.850Z,10.38
2023-01-01T20:00:28.096Z,10.30
2023-01-01T20:02:47.335Z,10.32
2023-01-01T20:04:49.650Z,10.68
2023-01-01T20:06:51.313Z,10.58
2023-01-01T20:08:53.657Z,10.57
2023-01-01T20:10:55.761Z,10.59
2023-01-01T20:12:58.269Z,10.47
2023-01-01T20:15:00.079Z,10.31
2023-01-01T20:17:02.148Z,10.14
2023-01-01T20:19:04.269Z,10.20
2023-01-01T20:21:26.712Z,10.27
2023-01-01T20:23:29.095Z,10.23
2023-01-01T20:25:30.689Z,10.20
2023-01-01T20:27:33.301Z,10.21
2023-01-01T20:29:35.283Z,10.23
2023-01-01T20:31:37.220Z,10.32
2023-01-01T20:33:40.061Z,10.47
2023-01-01T20:36:00.915Z,10.50
2023-01-01T20:38:02.684Z,10.49
2023-01-01T20:40:07.273Z,10.54
2023-01-01T20:42:08.938Z,10.61
2023-01-01T20:44:10.572Z,10.64
2023-01-01T20:46:12.339Z,10.58
2023-01-01T20:48:19.600Z,10.63
2023-01-01T20:50:21.799Z,10.74
2023-01-01T20:52:23.576Z,10.69
2023-01-01T20:54:25.596Z,10.73
2023-01-01T20:56:27.526Z,10.72
2023-01-01T20:58:29.162Z,10.69
2023-01-01T21:00:30.745Z,10.73
2023-01-01T21:02:32.799Z,10.73
2023-01-01T21:04:38.435Z,10.66
2023-01-01T21:06:40.715Z,10.69
2023-01-01T21:08:42.377Z,10.61
2023-01-01T21:10:44.212Z,10.66
2023-01-01T21:12:45.735Z,10.61
2023-01-01T21:14:47.296Z,10.58
2023-01-01T21:16:48.978Z,10.62
2023-01-01T21:18:51.821Z,10.57
2023-01-01T21:20:53.391Z,10.60
2023-01-01T21:22:58.900Z,10.48
2023-01-01T21:27:49.924Z,10.27
2023-01-01T21:29:56.258Z,10.31
2023-01-01T21:32:12.244Z,10.34
2023-01-01T21:34:24.675Z,10.29
2023-01-01T21:36:26.674Z,10.28
2023-01-01T21:38:29.631Z,10.19
2023-01-01T21:40:41.648Z,10.18
2023-01-01T21:42:43.296Z,10.16
2023-01-01T21:44:47.428Z,10.18
2023-01-01T21:46:54.219Z,10.25
2023-01-01T21:48:58.836Z,10.31
2023-01-01T21:51:01.368Z,10.30
2023-01-01T21:53:12.222Z,10.27
2023-01-01T21:55:26.071Z,10.28
2023-01-01T21:57:30.375Z,10.28
2023-01-01T21:59:33.738Z,10.19
2023-01-01T22:01:43.326Z,10.23
2023-01-01T22:03:44.923Z,10.20
2023-01-01T22:05:46.555Z,10.20
2023-01-01T22:07:57.896Z,10.31
2023-01-01T22:10:01.957Z,10.30
2023-01-01T22:12:24.933Z,10.32
2023-01-01T22:14:36.712Z,10.30
2023-01-01T22:16:38.428Z,10.21
2023-01-01T22:18:40.251Z,10.25
2023-01-01T22:20:44.062Z,10.29
2023-01-01T22:22:45.790Z,10.30
2023-01-01T22:24:53.517Z,10.29
2023-01-01T22:26:57.432Z,10.23
2023-01-01T22:29:08.058Z,10.23
2023-01-01T22:31:17.264Z,10.21
2023-01-01T22:33:25.817Z,10.26
2023-01-01T22:35:29.790Z,10.40
2023-01-01T22:37:37.049Z,10.42
2023-01-01T22:39:38.619Z,10.62
2023-01-01T22:41:42.467Z,10.82
2023-01-01T22:43:46.796Z,11.05
2023-01-01T22:45:49.724Z,11.31
2023-01-01T22:47:51.666Z,11.40
2023-01-01T22:49:53.860Z,11.49
2023-01-01T22:51:57.034Z,11.55
2023-01-01T22:53:58.603Z,11.80
2023-01-01T22:56:00.249Z,11.96
2023-01-01T22:58:02.134Z,12.05
2023-01-01T23:00:05.810Z,12.10
2023-01-01T23:02:07.913Z,12.22
2023-01-01T23:04:10.000Z,12.32
2023-01-01T23:06:11.879Z,12.47
2023-01-01T23:08:13.566Z,12.62
2023-01-01T23:10:15.981Z,12.87
2023-01-01T23:12:17.554Z,12.91
2023-01-01T23:14:39.344Z,12.95
2023-01-01T23:16:41.262Z,12.92
2023-01-01T23:18:43.051Z,12.88
2023-01-01T23:20:44.817Z,12.88
2023-01-01T23:22:52.789Z,12.91
2023-01-01T23:24:55.798Z,12.87
2023-01-01T23:26:59.158Z,12.85
2023-01-01T23:29:02.759Z,12.92
2023-01-01T23:31:07.464Z,12.87
2023-01-01T23:33:09.334Z,12.80
2023-01-01T23:35:11.665Z,12.77
2023-01-01T23:37:14.367Z,12.98
2023-01-01T23:39:16.083Z,12.92
2023-01-01T23:41:18.455Z,12.98
2023-01-01T23:43:20.363Z,13.22
2023-01-01T23:45:22.520Z,13.23
2023-01-01T23:47:24.292Z,13.16
2023-01-01T23:49:27.233Z,13.29
2023-01-01T23:51:28.944Z,13.21
2023-01-01T23:53:30.899Z,13.19
2023-01-01T23:55:33.380Z,13.22
2023-01-01T23:57:35.158Z,13.30
2023-01-01T23:59:36.710Z,13.36
